Hutchinson Island, Florida
Current Conditions -  °F | °C
As of 8:53 AM on Monday 26 Jan 2015 (Local Time) from KFPR Reporting Station
Overcast Overcast  
Wind Chill: 58°   Ceiling: 6000
Heat Index: 58°   Visibility: 10mi
Dew Point: 57°   Wind: 7mph
Humidity: 97%   Direction: 240°WSW
Pressure: 29.9"   Gusts: NA
Location:  27.3823°N, 80.2604°W
Report Text: KFPR 261353Z 24006KT 10SM SCT046 OVC060 14/14 A2990 RMK AO2 RAB03E46 SLP125 P0007 T01440139
Loading
Personal Weather Stations






























Interactive Weather Map New forecast layout! Learn more

10-Day Weather Forecast

Advertisements
Track Severe Weather on mobile